Wachtebeke, Belgium
Current Conditions -  °F | °C
As of 2:25 AM on Monday 24 Nov 2014 (Local Time) from EHFS Reporting Station
Overcast Overcast  
Wind Chill: 43°   Ceiling: 1900
Heat Index: 48°   Visibility: 6mi
Dew Point: 45°   Wind: 12mph
Humidity: 87%   Direction: 320°NW
Pressure: 30.12"   Gusts: NA
Location:  51.17°N, 3.87°E
Report Text: EHFS 240125Z AUTO 32010KT 300V360 9999 FEW016/// BKN019///OVC030/// 09/07 Q1020 REDZ
Loading
Personal Weather Stations






























Interactive Weather Map New forecast layout! Learn more

10-Day Weather Forecast

Advertisements
Track Severe Weather on mobile